Aeroporto :
LOGIN :

Iscrizione | Disclaimer

   EN    FR    IT 

 










Sommario :    VFR   VFR Marginale   IFR   IFR Intensivo   IFR Molto Intensivo
Visibilità : 
Base nubi : 
>= 8 km
>= 3000ft
5 / 8 km
1000 / 3000 ft
1500m / 5 km
500 / 1000 ft
800 / 1500m
200 / 500 ft
< 800m
< 200 ft
Simboli :   Temporali  Nebbia  Neve Forte  Precipitazioni Forti  Vento > 20 kt
SIGMETs :   Varie  Temporali  Ghiacco  Turbolenza  Onda orograficha  Ceneri Vulcaniche






- Altitudine del aeroporto : 814 ft
- Codice IATA : TLM


DAON - Zenata - Tlemcen

ULTIMO METAR :
  • 050100Z 26012KT 9999 SCT020 BKN026 08/05 Q1003

METARs OBSOLETI :
  • 050000Z 26009KT 9999 SCT020 BKN026 10/08 Q1003
  • 042300Z 25010KT 9999 -RA BKN026 SCT100 10/08 Q1002

TAF TAF DAON
Valido dal 05 a 00 ore il 06 a 00 ore UTC


042300Z 0500/0524 24014KT 8000 SCT023 BKN026
TEMPO 0500/0506 27020G35KT 5000 TSRA FEW026CB
PROB40
TEMPO 0500/0506 4000 -TSSHRA FEW026CB
PROB40
TEMPO 0500/0506 1000 -TSGR SCT023CB
BECMG 0510/0514 SCT026



MetMap, La meteo Aeronautica in un colpo d'occhio ! - Copyright ORBIFLY Dicembre 2007 - Disclaimer

ORBIFLY MET'MAP TEAM :

Programmazione e sviluppo : Alexandra Zaïnal
Concezione : Baudouin d'Aumeries
Aiuto per la programmazione : Marc-Olivier Méhu
Supporto tecnico e logistico : Manuel Goepfert
Aiuto per la traduzione : Arnaldo La Scala

Contatto : metmap@orbifly.com




FONTI E CREDITI :

   NOAA